Time;durP1;ratioP1;P1;durP2;ratioP2;P2;SDS_P1;SDS_P2;PMS_P1;PMS_P2;Temp;Humidity;BMP_temperature;BMP_pressure;BME280_temperature;BME280_humidity;BME280_pressure;Samples;Min_cycle;Max_cycle;Signal;HPM_P1;HPM_P2
2023/12/02 00:01:54;;;;;;;15.98;3.22;;;;;;;;;;5077120;28;20392;-43
2023/12/02 00:04:21;;;;;;;16.13;3.25;;;;;;;;;;5082864;28;20423;-43
2023/12/02 00:06:48;;;;;;;18.23;3.70;;;;;;;;;;5083780;28;20386;-43
2023/12/02 00:09:15;;;;;;;18.55;3.70;;;;;;;;;;5082733;28;20394;-43
2023/12/02 00:11:42;;;;;;;18.40;3.88;;;;;;;;;;5089953;28;20397;-44
2023/12/02 00:14:09;;;;;;;20.55;4.43;;;;;;;;;;5080894;28;20912;-43
2023/12/02 00:16:36;;;;;;;17.05;4.47;;;;;;;;;;5078585;28;20410;-43
2023/12/02 00:19:03;;;;;;;18.60;4.63;;;;;;;;;;5081205;28;20390;-43
2023/12/02 00:21:30;;;;;;;19.90;4.60;;;;;;;;;;5083299;28;20399;-43
2023/12/02 00:23:57;;;;;;;18.50;4.63;;;;;;;;;;5083670;28;20393;-43
2023/12/02 00:26:24;;;;;;;19.87;4.70;;;;;;;;;;5090089;28;20406;-43
2023/12/02 00:28:51;;;;;;;17.02;4.60;;;;;;;;;;5072426;28;20387;-43
2023/12/02 00:31:18;;;;;;;19.50;4.85;;;;;;;;;;5069850;28;20422;-43
2023/12/02 00:33:45;;;;;;;22.40;5.30;;;;;;;;;;5070300;28;20479;-40
2023/12/02 00:36:12;;;;;;;21.70;5.20;;;;;;;;;;5071515;28;20394;-43
2023/12/02 00:38:39;;;;;;;25.40;5.07;;;;;;;;;;5080908;28;20417;-43
2023/12/02 00:41:10;;;;;;;22.10;5.13;;;;;;;;;;5090003;28;20451;-43
2023/12/02 00:43:37;;;;;;;22.20;5.40;;;;;;;;;;5083728;28;20423;-43
2023/12/02 00:46:04;;;;;;;20.17;5.07;;;;;;;;;;5089901;28;20453;-42
2023/12/02 00:48:32;;;;;;;25.77;5.93;;;;;;;;;;5089230;28;20461;-42
2023/12/02 00:50:59;;;;;;;22.08;5.57;;;;;;;;;;5072034;28;20391;-43
2023/12/02 00:53:26;;;;;;;23.35;5.85;;;;;;;;;;5074717;28;20408;-43
2023/12/02 00:55:52;;;;;;;22.80;5.80;;;;;;;;;;5073537;28;20403;-43
2023/12/02 00:58:19;;;;;;;23.70;5.88;;;;;;;;;;5070112;28;20442;-43
2023/12/02 01:00:46;;;;;;;25.98;5.85;;;;;;;;;;5077187;28;20426;-43
2023/12/02 01:03:13;;;;;;;21.57;6.13;;;;;;;;;;5089516;28;20436;-43
2023/12/02 01:05:40;;;;;;;20.58;5.78;;;;;;;;;;5090002;28;20422;-43
2023/12/02 01:08:07;;;;;;;23.88;5.90;;;;;;;;;;5089399;28;20401;-43
2023/12/02 01:10:34;;;;;;;22.70;5.70;;;;;;;;;;5090083;28;21006;-43
2023/12/02 01:13:02;;;;;;;20.38;5.80;;;;;;;;;;5088375;28;20502;-44
2023/12/02 01:15:29;;;;;;;20.95;5.80;;;;;;;;;;5075976;28;20445;-43
2023/12/02 01:17:56;;;;;;;19.27;5.20;;;;;;;;;;5089945;28;20387;-43
2023/12/02 01:20:23;;;;;;;17.98;5.10;;;;;;;;;;5079934;28;20409;-43
2023/12/02 01:22:50;;;;;;;19.85;5.32;;;;;;;;;;5090092;28;20390;-43
2023/12/02 01:25:17;;;;;;;23.77;5.75;;;;;;;;;;5086790;28;20445;-43
2023/12/02 01:27:44;;;;;;;23.85;5.78;;;;;;;;;;5080600;28;20409;-43
2023/12/02 01:30:11;;;;;;;15.32;4.80;;;;;;;;;;5089543;28;20401;-43
2023/12/02 01:32:38;;;;;;;14.80;5.00;;;;;;;;;;5089575;28;20402;-43
2023/12/02 01:35:05;;;;;;;13.65;4.75;;;;;;;;;;5081125;28;20420;-43
2023/12/02 01:37:32;;;;;;;11.45;4.25;;;;;;;;;;5089934;28;20798;-43
2023/12/02 01:39:59;;;;;;;14.65;4.38;;;;;;;;;;5089783;28;20723;-43
2023/12/02 01:42:26;;;;;;;15.63;4.25;;;;;;;;;;5089744;28;20385;-43
2023/12/02 01:44:53;;;;;;;12.20;4.50;;;;;;;;;;5081098;28;20945;-43
2023/12/02 01:47:20;;;;;;;12.85;4.38;;;;;;;;;;5082347;28;20869;-43
2023/12/02 01:49:48;;;;;;;13.43;4.50;;;;;;;;;;5092962;28;20394;-43
2023/12/02 01:52:15;;;;;;;13.93;4.60;;;;;;;;;;5079345;28;20399;-43
2023/12/02 01:54:44;;;;;;;12.77;4.30;;;;;;;;;;5093187;28;20481;-45
2023/12/02 01:57:11;;;;;;;12.52;4.03;;;;;;;;;;5079281;28;20394;-43
2023/12/02 01:59:45;;;;;;;13.07;4.70;;;;;;;;;;5092610;28;20903;-43
2023/12/02 02:02:12;;;;;;;14.02;4.43;;;;;;;;;;5093292;28;20386;-43
2023/12/02 02:04:39;;;;;;;11.50;4.18;;;;;;;;;;5092808;28;21023;-43
2023/12/02 02:07:06;;;;;;;13.77;4.28;;;;;;;;;;5092953;28;20802;-43
2023/12/02 02:09:46;;;;;;;10.63;4.40;;;;;;;;;;5092848;28;20744;-43
2023/12/02 02:12:14;;;;;;;14.27;4.40;;;;;;;;;;5092959;28;20803;-43
2023/12/02 02:14:41;;;;;;;11.00;4.20;;;;;;;;;;5078869;28;20404;-43
2023/12/02 02:17:08;;;;;;;11.32;4.32;;;;;;;;;;5090607;28;20389;-43
2023/12/02 02:19:35;;;;;;;10.18;4.53;;;;;;;;;;5083571;28;20423;-43
2023/12/02 02:22:02;;;;;;;9.32;3.88;;;;;;;;;;5090493;28;20394;-43
2023/12/02 02:24:29;;;;;;;8.00;3.77;;;;;;;;;;5090383;28;21162;-43
2023/12/02 02:26:56;;;;;;;10.45;3.83;;;;;;;;;;5092558;28;20880;-43
2023/12/02 02:29:23;;;;;;;12.00;3.80;;;;;;;;;;5086683;28;20386;-44
2023/12/02 02:31:50;;;;;;;13.43;4.10;;;;;;;;;;5092552;28;20404;-43
2023/12/02 02:34:18;;;;;;;11.32;4.10;;;;;;;;;;5089721;28;20398;-42
2023/12/02 02:36:45;;;;;;;11.18;4.13;;;;;;;;;;5092163;28;20493;-43
2023/12/02 02:39:12;;;;;;;8.35;3.72;;;;;;;;;;5092104;28;20417;-42
2023/12/02 02:41:39;;;;;;;11.50;4.03;;;;;;;;;;5092269;28;20401;-40
2023/12/02 02:44:06;;;;;;;8.90;3.57;;;;;;;;;;5084927;28;20406;-42
2023/12/02 02:46:34;;;;;;;12.20;3.33;;;;;;;;;;5079382;28;20410;-40
2023/12/02 02:49:01;;;;;;;8.45;3.05;;;;;;;;;;5077097;28;20835;-42
2023/12/02 02:51:29;;;;;;;6.72;2.72;;;;;;;;;;5078535;28;20509;-42
2023/12/02 02:53:56;;;;;;;9.50;2.80;;;;;;;;;;5077088;28;20482;-41
2023/12/02 02:56:23;;;;;;;7.05;2.92;;;;;;;;;;5087236;28;20788;-42
2023/12/02 02:58:51;;;;;;;6.68;2.60;;;;;;;;;;5073598;28;20439;-43
2023/12/02 03:01:18;;;;;;;9.82;2.53;;;;;;;;;;5080655;28;20398;-42
2023/12/02 03:03:45;;;;;;;6.68;2.60;;;;;;;;;;5091810;28;20424;-40
2023/12/02 03:06:13;;;;;;;6.07;2.35;;;;;;;;;;5091812;28;20425;-42
2023/12/02 03:08:40;;;;;;;5.07;2.10;;;;;;;;;;5091609;28;20386;-42
2023/12/02 03:11:08;;;;;;;6.60;2.30;;;;;;;;;;5092041;28;20386;-42
2023/12/02 03:13:35;;;;;;;6.55;2.20;;;;;;;;;;5087199;28;20895;-42
2023/12/02 03:16:03;;;;;;;5.90;2.22;;;;;;;;;;5083114;28;20401;-42
2023/12/02 03:18:30;;;;;;;6.10;2.10;;;;;;;;;;5091648;28;20748;-42
2023/12/02 03:20:57;;;;;;;3.85;1.80;;;;;;;;;;5091885;28;20398;-42
2023/12/02 03:23:25;;;;;;;4.00;1.90;;;;;;;;;;5090881;28;20385;-42
2023/12/02 03:25:52;;;;;;;7.18;2.17;;;;;;;;;;5091820;28;20409;-42
2023/12/02 03:28:21;;;;;;;5.38;1.90;;;;;;;;;;5091818;28;20388;-42
2023/12/02 03:30:48;;;;;;;6.20;1.90;;;;;;;;;;5091461;28;20394;-42
2023/12/02 03:33:15;;;;;;;6.22;1.95;;;;;;;;;;5091759;28;20439;-42
2023/12/02 03:35:42;;;;;;;5.78;2.17;;;;;;;;;;5091653;28;20374;-42
2023/12/02 03:38:09;;;;;;;5.68;2.60;;;;;;;;;;5091755;28;20405;-42
2023/12/02 03:40:36;;;;;;;4.10;2.20;;;;;;;;;;5091581;28;20798;-42
2023/12/02 03:43:03;;;;;;;5.97;2.30;;;;;;;;;;5091624;28;20378;-42
2023/12/02 03:45:30;;;;;;;5.50;1.85;;;;;;;;;;5091453;28;20898;-42
2023/12/02 03:47:57;;;;;;;5.75;1.88;;;;;;;;;;5091539;28;20832;-42
2023/12/02 03:50:24;;;;;;;7.03;1.98;;;;;;;;;;5091537;28;20791;-42
2023/12/02 03:52:51;;;;;;;4.00;1.67;;;;;;;;;;5091497;28;20743;-42
2023/12/02 03:55:19;;;;;;;4.47;2.00;;;;;;;;;;5091277;28;20727;-41
2023/12/02 03:57:46;;;;;;;6.90;1.73;;;;;;;;;;5091367;28;20382;-42
2023/12/02 04:00:19;;;;;;;3.88;1.60;;;;;;;;;;5091299;28;20378;-42
2023/12/02 04:02:46;;;;;;;3.90;1.50;;;;;;;;;;5091263;28;20394;-42
2023/12/02 04:05:13;;;;;;;4.25;1.42;;;;;;;;;;5091112;28;20463;-42
2023/12/02 04:07:41;;;;;;;3.22;1.58;;;;;;;;;;5091329;28;20405;-42
2023/12/02 04:10:12;;;;;;;2.90;1.30;;;;;;;;;;5090650;28;20418;-42
2023/12/02 04:12:39;;;;;;;3.65;1.60;;;;;;;;;;5091185;28;20381;-42
2023/12/02 04:15:06;;;;;;;2.53;1.40;;;;;;;;;;5090985;28;20870;-42
2023/12/02 04:17:33;;;;;;;2.88;1.27;;;;;;;;;;5091174;28;20378;-41
2023/12/02 04:20:00;;;;;;;3.15;1.50;;;;;;;;;;5091057;28;20378;-42
2023/12/02 04:22:27;;;;;;;3.05;1.30;;;;;;;;;;5091099;28;20382;-42
2023/12/02 04:24:54;;;;;;;3.78;1.33;;;;;;;;;;5090791;28;20931;-42
2023/12/02 04:27:21;;;;;;;6.18;1.38;;;;;;;;;;5090927;28;20889;-42
2023/12/02 04:29:48;;;;;;;4.18;1.50;;;;;;;;;;5090895;28;20381;-42
2023/12/02 04:32:32;;;;;;;3.70;1.20;;;;;;;;;;5090942;28;20463;-42
2023/12/02 04:34:59;;;;;;;4.38;1.35;;;;;;;;;;5090689;28;20932;-42
2023/12/02 04:37:27;;;;;;;2.53;1.20;;;;;;;;;;5090748;28;20374;-42
2023/12/02 04:39:55;;;;;;;2.55;1.17;;;;;;;;;;5090708;28;20407;-42
2023/12/02 04:42:22;;;;;;;5.95;1.30;;;;;;;;;;5090719;28;20382;-42
2023/12/02 04:44:49;;;;;;;4.17;1.10;;;;;;;;;;5090631;28;20459;-42
2023/12/02 04:47:16;;;;;;;4.72;1.30;;;;;;;;;;5090782;28;20378;-42
2023/12/02 04:49:43;;;;;;;4.65;1.00;;;;;;;;;;5090524;28;20378;-42
2023/12/02 04:52:10;;;;;;;3.80;1.27;;;;;;;;;;5090633;28;20903;-42
2023/12/02 04:54:37;;;;;;;4.10;1.00;;;;;;;;;;5090534;28;20469;-42
2023/12/02 04:57:04;;;;;;;3.53;1.00;;;;;;;;;;5090651;28;20493;-42
2023/12/02 04:59:31;;;;;;;4.05;1.10;;;;;;;;;;5090538;28;20863;-42
2023/12/02 05:01:57;;;;;;;4.30;1.10;;;;;;;;;;5090597;28;20411;-42
2023/12/02 05:04:24;;;;;;;3.38;1.13;;;;;;;;;;5090194;28;20406;-42
2023/12/02 05:06:53;;;;;;;3.17;0.90;;;;;;;;;;5090393;28;20779;-42
2023/12/02 05:09:21;;;;;;;2.87;1.07;;;;;;;;;;5090374;28;20855;-42
2023/12/02 05:11:48;;;;;;;3.67;1.00;;;;;;;;;;5090315;28;20378;-42
2023/12/02 05:14:15;;;;;;;2.72;0.85;;;;;;;;;;5090495;28;20366;-42
2023/12/02 05:16:42;;;;;;;2.20;0.80;;;;;;;;;;5090211;28;20383;-42
2023/12/02 05:19:09;;;;;;;1.70;0.82;;;;;;;;;;5090396;28;20938;-42
2023/12/02 05:21:39;;;;;;;3.53;1.10;;;;;;;;;;5090428;28;20378;-42
2023/12/02 05:24:08;;;;;;;3.53;1.00;;;;;;;;;;5093475;28;20767;-42
2023/12/02 05:26:35;;;;;;;3.13;0.90;;;;;;;;;;5094220;28;20459;-42
2023/12/02 05:29:02;;;;;;;3.30;0.97;;;;;;;;;;5094198;28;20862;-42
2023/12/02 05:31:29;;;;;;;2.53;0.83;;;;;;;;;;5094150;28;20709;-42
2023/12/02 05:33:56;;;;;;;3.08;0.80;;;;;;;;;;5094161;28;20370;-42
2023/12/02 05:36:23;;;;;;;2.78;1.10;;;;;;;;;;5094049;28;20374;-42
2023/12/02 05:38:50;;;;;;;3.15;1.10;;;;;;;;;;5094144;28;20369;-42
2023/12/02 05:41:17;;;;;;;2.80;1.17;;;;;;;;;;5093960;28;20878;-42
2023/12/02 05:43:44;;;;;;;2.70;0.87;;;;;;;;;;5093964;28;20366;-42
2023/12/02 05:46:17;;;;;;;3.78;1.30;;;;;;;;;;5093910;28;20445;-42
2023/12/02 05:48:44;;;;;;;4.30;0.90;;;;;;;;;;5093796;28;20932;-42
2023/12/02 05:51:12;;;;;;;1.60;0.98;;;;;;;;;;5093781;28;20366;-42
2023/12/02 05:53:39;;;;;;;3.55;1.08;;;;;;;;;;5093752;28;20859;-42
2023/12/02 05:56:10;;;;;;;2.38;0.95;;;;;;;;;;5093621;28;20397;-42
2023/12/02 05:58:37;;;;;;;3.58;1.08;;;;;;;;;;5093654;28;20465;-42
2023/12/02 06:01:04;;;;;;;1.75;0.70;;;;;;;;;;5091609;28;21315;-42
2023/12/02 06:03:31;;;;;;;2.40;0.70;;;;;;;;;;5093412;28;20493;-42
2023/12/02 06:05:58;;;;;;;2.40;0.80;;;;;;;;;;5093256;28;20402;-42
2023/12/02 06:08:25;;;;;;;1.63;0.80;;;;;;;;;;5093607;28;20445;-42
2023/12/02 06:10:52;;;;;;;3.33;0.70;;;;;;;;;;5093604;28;20923;-42
2023/12/02 06:13:19;;;;;;;2.35;0.70;;;;;;;;;;5093420;28;20366;-42
2023/12/02 06:15:46;;;;;;;1.88;0.60;;;;;;;;;;5093393;28;20374;-42
2023/12/02 06:18:13;;;;;;;3.47;0.70;;;;;;;;;;5093398;28;20362;-42
2023/12/02 06:20:40;;;;;;;2.60;0.63;;;;;;;;;;5093358;28;20419;-42
2023/12/02 06:23:07;;;;;;;1.60;0.60;;;;;;;;;;5093253;28;20423;-42
2023/12/02 06:25:34;;;;;;;1.83;0.60;;;;;;;;;;5092862;28;20976;-42
2023/12/02 06:28:01;;;;;;;3.03;0.60;;;;;;;;;;5093153;28;20386;-42
2023/12/02 06:30:28;;;;;;;1.48;0.70;;;;;;;;;;5093206;28;20366;-42
2023/12/02 06:32:55;;;;;;;1.70;0.60;;;;;;;;;;5093095;28;20926;-42
2023/12/02 06:35:22;;;;;;;1.27;0.68;;;;;;;;;;5092633;28;20366;-42
2023/12/02 06:37:49;;;;;;;2.80;0.50;;;;;;;;;;5092962;28;20377;-41
2023/12/02 06:40:17;;;;;;;2.70;0.60;;;;;;;;;;5092945;28;20483;-42
2023/12/02 06:42:44;;;;;;;1.55;0.55;;;;;;;;;;5092823;28;20377;-42
2023/12/02 06:45:12;;;;;;;1.58;0.70;;;;;;;;;;5092547;28;20402;-42
2023/12/02 06:47:38;;;;;;;1.20;0.50;;;;;;;;;;5092715;28;20382;-42
2023/12/02 06:50:06;;;;;;;1.55;0.52;;;;;;;;;;5092635;28;20782;-42
2023/12/02 06:52:32;;;;;;;2.38;0.60;;;;;;;;;;5092769;28;20374;-42
2023/12/02 06:55:00;;;;;;;2.13;0.55;;;;;;;;;;5092637;28;20377;-42
2023/12/02 06:57:26;;;;;;;0.82;0.50;;;;;;;;;;5092493;28;20370;-42
2023/12/02 06:59:53;;;;;;;1.60;0.60;;;;;;;;;;5092583;28;20400;-42
2023/12/02 07:02:20;;;;;;;1.63;0.60;;;;;;;;;;5092544;28;20499;-42
2023/12/02 07:04:47;;;;;;;1.35;0.60;;;;;;;;;;5092151;28;20426;-42
2023/12/02 07:07:14;;;;;;;1.58;0.50;;;;;;;;;;5092448;28;20374;-42
2023/12/02 07:09:41;;;;;;;1.63;0.57;;;;;;;;;;5092353;28;20384;-42
2023/12/02 07:12:08;;;;;;;1.35;0.60;;;;;;;;;;5092398;28;20405;-42
2023/12/02 07:14:35;;;;;;;1.17;0.55;;;;;;;;;;5092223;28;20374;-42
2023/12/02 07:17:04;;;;;;;1.20;0.60;;;;;;;;;;5092343;28;20371;-42
2023/12/02 07:19:31;;;;;;;3.10;0.55;;;;;;;;;;5092190;28;20446;-42
2023/12/02 07:21:58;;;;;;;2.15;0.70;;;;;;;;;;5092065;28;20441;-42
2023/12/02 07:24:25;;;;;;;2.22;0.60;;;;;;;;;;5092003;28;20429;-42
2023/12/02 07:26:52;;;;;;;2.50;0.60;;;;;;;;;;5092073;28;20374;-42
2023/12/02 07:29:19;;;;;;;0.90;0.60;;;;;;;;;;5091970;28;20362;-42
2023/12/02 07:31:46;;;;;;;1.30;0.60;;;;;;;;;;5091967;28;20413;-42
2023/12/02 07:34:13;;;;;;;2.13;0.63;;;;;;;;;;5091747;28;20370;-42
2023/12/02 07:36:40;;;;;;;1.55;0.60;;;;;;;;;;5091830;28;20842;-42
2023/12/02 07:39:07;;;;;;;3.30;0.65;;;;;;;;;;5091789;28;20449;-41
2023/12/02 07:41:34;;;;;;;3.40;0.60;;;;;;;;;;5091694;28;20422;-42
2023/12/02 07:44:01;;;;;;;1.02;0.60;;;;;;;;;;5091711;28;20370;-42
2023/12/02 07:46:28;;;;;;;1.40;0.70;;;;;;;;;;5090671;28;20413;-41
2023/12/02 07:48:56;;;;;;;3.23;0.73;;;;;;;;;;5107422;28;20703;-41
2023/12/02 07:51:23;;;;;;;3.08;0.50;;;;;;;;;;5091812;28;20373;-42
2023/12/02 07:53:50;;;;;;;3.10;0.60;;;;;;;;;;5091527;28;20391;-41
2023/12/02 07:56:18;;;;;;;3.00;0.60;;;;;;;;;;5091452;28;20524;-42
2023/12/02 07:58:45;;;;;;;1.60;0.50;;;;;;;;;;5091516;28;20382;-42
2023/12/02 08:01:11;;;;;;;1.92;0.60;;;;;;;;;;5091333;28;20775;-42
2023/12/02 08:03:38;;;;;;;2.78;0.60;;;;;;;;;;5091185;28;20491;-42
2023/12/02 08:06:05;;;;;;;2.20;0.50;;;;;;;;;;5091089;28;20408;-42
2023/12/02 08:08:32;;;;;;;1.63;0.60;;;;;;;;;;5091289;28;20432;-42
2023/12/02 08:10:59;;;;;;;2.10;0.60;;;;;;;;;;5091292;28;20441;-42
2023/12/02 08:13:26;;;;;;;1.47;0.70;;;;;;;;;;5091240;28;20442;-42
2023/12/02 08:15:53;;;;;;;0.98;0.57;;;;;;;;;;5090603;28;20946;-42
2023/12/02 08:18:21;;;;;;;1.48;0.60;;;;;;;;;;5089619;28;20390;-42
2023/12/02 08:20:48;;;;;;;1.55;0.57;;;;;;;;;;5090347;28;20963;-42
2023/12/02 08:23:15;;;;;;;2.00;0.60;;;;;;;;;;5091061;28;20758;-42
2023/12/02 08:25:43;;;;;;;4.38;0.70;;;;;;;;;;5090859;28;20937;-42
2023/12/02 08:28:10;;;;;;;2.08;0.70;;;;;;;;;;5090890;28;20427;-42
2023/12/02 08:30:36;;;;;;;2.20;0.60;;;;;;;;;;5090954;28;20422;-42
2023/12/02 08:33:03;;;;;;;1.27;0.70;;;;;;;;;;5090913;28;20425;-42
2023/12/02 08:35:31;;;;;;;1.60;0.70;;;;;;;;;;5090620;28;20396;-42
2023/12/02 08:37:58;;;;;;;2.60;0.67;;;;;;;;;;5090715;28;20728;-42
2023/12/02 08:40:25;;;;;;;2.45;0.60;;;;;;;;;;5090697;28;20390;-42
2023/12/02 08:42:52;;;;;;;1.80;0.60;;;;;;;;;;5090758;28;20378;-42
2023/12/02 08:45:19;;;;;;;2.15;0.68;;;;;;;;;;5090522;28;20414;-42
2023/12/02 08:47:46;;;;;;;1.08;0.50;;;;;;;;;;5090741;28;20386;-42
2023/12/02 08:50:13;;;;;;;2.43;0.53;;;;;;;;;;5090677;28;20381;-42
2023/12/02 08:52:40;;;;;;;1.67;0.60;;;;;;;;;;5090642;28;20412;-42
2023/12/02 08:55:07;;;;;;;1.02;0.57;;;;;;;;;;5090544;28;20975;-42
2023/12/02 08:57:33;;;;;;;0.95;0.60;;;;;;;;;;5094697;28;20464;-42
2023/12/02 09:00:00;;;;;;;2.08;0.77;;;;;;;;;;5097352;28;20430;-42
2023/12/02 09:02:27;;;;;;;1.67;0.65;;;;;;;;;;5097319;28;20451;-42
2023/12/02 09:04:54;;;;;;;2.45;0.70;;;;;;;;;;5096973;28;20760;-42
2023/12/02 09:07:21;;;;;;;2.10;0.50;;;;;;;;;;5097173;28;20388;-42
2023/12/02 09:09:48;;;;;;;1.20;0.60;;;;;;;;;;5097166;28;20393;-42
2023/12/02 09:12:15;;;;;;;1.60;0.65;;;;;;;;;;5097261;28;20397;-42
2023/12/02 09:14:42;;;;;;;2.50;0.83;;;;;;;;;;5097146;28;20442;-42
2023/12/02 09:17:29;;;;;;;1.80;0.70;;;;;;;;;;5097278;28;20384;-42
2023/12/02 09:19:56;;;;;;;1.73;0.70;;;;;;;;;;5097100;28;20385;-42
2023/12/02 09:22:41;;;;;;;1.75;0.70;;;;;;;;;;5097231;28;20449;-42
2023/12/02 09:25:08;;;;;;;1.30;0.63;;;;;;;;;;5096933;28;20457;-42
2023/12/02 09:27:53;;;;;;;1.42;0.60;;;;;;;;;;5097132;28;20381;-42
2023/12/02 09:30:20;;;;;;;1.70;0.70;;;;;;;;;;5096972;28;20374;-42
2023/12/02 09:32:48;;;;;;;1.98;0.70;;;;;;;;;;5096974;28;20447;-42
2023/12/02 09:35:15;;;;;;;1.60;0.70;;;;;;;;;;5096967;28;20386;-42
2023/12/02 09:37:58;;;;;;;1.40;0.50;;;;;;;;;;5096911;28;20377;-42
2023/12/02 09:40:38;;;;;;;2.53;0.60;;;;;;;;;;5096904;28;20860;-42
2023/12/02 09:43:08;;;;;;;0.93;0.60;;;;;;;;;;5096882;28;20372;-42
2023/12/02 09:45:49;;;;;;;1.90;0.80;;;;;;;;;;5096851;28;20431;-42
2023/12/02 09:48:25;;;;;;;1.15;0.65;;;;;;;;;;5096840;28;20789;-42
2023/12/02 09:50:58;;;;;;;2.08;0.60;;;;;;;;;;5096899;28;20370;-43
2023/12/02 09:53:43;;;;;;;2.13;0.70;;;;;;;;;;5096891;28;20378;-42
2023/12/02 09:56:16;;;;;;;0.80;0.60;;;;;;;;;;5095961;28;20386;-42
2023/12/02 09:58:44;;;;;;;1.70;0.80;;;;;;;;;;5093794;28;20501;-42
2023/12/02 10:01:29;;;;;;;0.70;0.60;;;;;;;;;;5096756;28;20370;-42
2023/12/02 10:03:56;;;;;;;2.83;0.77;;;;;;;;;;5096568;28;20508;-42
2023/12/02 10:06:29;;;;;;;2.83;0.80;;;;;;;;;;5096577;28;20493;-42
2023/12/02 10:09:01;;;;;;;1.50;0.52;;;;;;;;;;5093946;28;20377;-42
2023/12/02 10:11:31;;;;;;;1.17;0.60;;;;;;;;;;5093552;28;20392;-42
2023/12/02 10:14:03;;;;;;;0.70;0.57;;;;;;;;;;5093423;28;20819;-42
2023/12/02 10:16:31;;;;;;;1.33;0.70;;;;;;;;;;5093334;28;20412;-42
2023/12/02 10:19:02;;;;;;;1.77;0.70;;;;;;;;;;5093380;28;20388;-42
2023/12/02 10:21:30;;;;;;;2.50;0.70;;;;;;;;;;5093160;28;20413;-42
2023/12/02 10:24:06;;;;;;;2.28;0.80;;;;;;;;;;5093147;28;20417;-43
2023/12/02 10:26:53;;;;;;;1.27;0.70;;;;;;;;;;5093108;28;20467;-42
2023/12/02 10:29:27;;;;;;;1.27;0.70;;;;;;;;;;5092985;28;20432;-42
2023/12/02 10:32:04;;;;;;;1.17;0.60;;;;;;;;;;5093106;28;20887;-42
2023/12/02 10:34:43;;;;;;;0.70;0.57;;;;;;;;;;5093006;28;20421;-42
2023/12/02 10:37:10;;;;;;;1.03;0.60;;;;;;;;;;5093003;28;20370;-42
2023/12/02 10:39:51;;;;;;;1.42;0.60;;;;;;;;;;5092935;28;20390;-42
2023/12/02 10:42:20;;;;;;;1.93;0.60;;;;;;;;;;5092749;28;20378;-42
2023/12/02 10:44:48;;;;;;;1.60;0.60;;;;;;;;;;5092694;28;20463;-42
2023/12/02 10:47:17;;;;;;;0.63;0.52;;;;;;;;;;5092795;28;20457;-40
2023/12/02 10:49:44;;;;;;;1.60;0.70;;;;;;;;;;5092697;28;20386;-42
2023/12/02 10:52:13;;;;;;;2.37;0.70;;;;;;;;;;5092751;28;20379;-42
2023/12/02 10:54:42;;;;;;;1.60;0.60;;;;;;;;;;5092634;28;20382;-42
2023/12/02 10:57:10;;;;;;;1.25;0.57;;;;;;;;;;5092521;28;20389;-42
2023/12/02 10:59:49;;;;;;;2.33;0.60;;;;;;;;;;5092482;28;20782;-42
2023/12/02 11:02:36;;;;;;;1.10;0.68;;;;;;;;;;5092556;28;20378;-42
2023/12/02 11:05:22;;;;;;;1.30;0.50;;;;;;;;;;5092013;28;20500;-42
2023/12/02 11:07:52;;;;;;;1.20;0.60;;;;;;;;;;5092346;28;20386;-42
2023/12/02 11:10:39;;;;;;;0.63;0.50;;;;;;;;;;5092346;28;21050;-42
2023/12/02 11:13:12;;;;;;;1.80;0.80;;;;;;;;;;5092294;28;20378;-42
2023/12/02 11:15:46;;;;;;;2.53;0.53;;;;;;;;;;5092204;28;20398;-42
2023/12/02 11:18:14;;;;;;;1.52;0.60;;;;;;;;;;5092169;28;20457;-42
2023/12/02 11:20:56;;;;;;;1.98;0.60;;;;;;;;;;5091009;28;20927;-42
2023/12/02 11:23:30;;;;;;;1.03;0.50;;;;;;;;;;5092106;28;20378;-42
2023/12/02 11:26:17;;;;;;;1.92;0.50;;;;;;;;;;5091778;28;20481;-42
2023/12/02 11:29:06;;;;;;;1.20;0.60;;;;;;;;;;5092029;28;20393;-42
2023/12/02 11:31:46;;;;;;;1.20;0.60;;;;;;;;;;5091691;28;20752;-42
2023/12/02 11:34:22;;;;;;;3.08;0.60;;;;;;;;;;5091608;28;20381;-42
2023/12/02 11:36:53;;;;;;;1.48;0.47;;;;;;;;;;5091822;28;20451;-42
2023/12/02 11:39:33;;;;;;;1.83;0.43;;;;;;;;;;5091692;28;20384;-42
2023/12/02 11:42:12;;;;;;;1.83;0.50;;;;;;;;;;5091595;28;20421;-42
2023/12/02 11:44:44;;;;;;;3.03;0.45;;;;;;;;;;5091448;28;20410;-42
2023/12/02 11:47:28;;;;;;;2.13;0.50;;;;;;;;;;5091656;28;21169;-42
2023/12/02 11:50:05;;;;;;;2.47;0.50;;;;;;;;;;5091505;28;20467;-42
2023/12/02 11:52:50;;;;;;;3.73;0.40;;;;;;;;;;5091327;28;20390;-42
2023/12/02 11:55:23;;;;;;;5.40;0.70;;;;;;;;;;5089697;28;20887;-42
2023/12/02 11:58:06;;;;;;;7.60;0.80;;;;;;;;;;5088590;28;20488;-42
2023/12/02 12:00:42;;;;;;;5.80;0.50;;;;;;;;;;5089841;28;20402;-42
2023/12/02 12:03:25;;;;;;;3.90;0.60;;;;;;;;;;5090431;28;20802;-42
2023/12/02 12:05:55;;;;;;;4.15;0.52;;;;;;;;;;5088887;28;20418;-41
2023/12/02 12:08:23;;;;;;;2.45;0.45;;;;;;;;;;5086767;28;20420;-41
2023/12/02 12:10:53;;;;;;;2.00;0.57;;;;;;;;;;5089407;28;20444;-42
2023/12/02 12:13:21;;;;;;;5.47;0.50;;;;;;;;;;5089658;28;20405;-42
2023/12/02 12:15:48;;;;;;;4.65;0.55;;;;;;;;;;5089254;28;20405;-41
2023/12/02 12:18:17;;;;;;;5.72;0.60;;;;;;;;;;5089734;28;20398;-41
2023/12/02 12:20:44;;;;;;;3.05;0.40;;;;;;;;;;5087061;28;20412;-41
2023/12/02 12:23:12;;;;;;;8.35;0.80;;;;;;;;;;5090316;28;20393;-41
2023/12/02 12:25:39;;;;;;;6.30;0.60;;;;;;;;;;5090765;28;20772;-41
2023/12/02 12:28:06;;;;;;;6.25;0.70;;;;;;;;;;5090714;28;20558;-41
2023/12/02 12:30:43;;;;;;;9.10;0.82;;;;;;;;;;5089941;28;20392;-41
2023/12/02 12:33:11;;;;;;;4.63;0.63;;;;;;;;;;5088790;28;20394;-41
2023/12/02 12:35:38;;;;;;;6.35;0.70;;;;;;;;;;5088844;28;20409;-42
2023/12/02 12:38:07;;;;;;;8.88;0.80;;;;;;;;;;5089641;28;20402;-42
2023/12/02 12:40:35;;;;;;;5.88;0.77;;;;;;;;;;5087317;28;20390;-41
2023/12/02 12:43:02;;;;;;;7.93;0.77;;;;;;;;;;5090050;28;20402;-41
2023/12/02 12:45:32;;;;;;;5.78;0.80;;;;;;;;;;5086272;28;20414;-41
2023/12/02 12:48:00;;;;;;;6.38;0.80;;;;;;;;;;5087918;28;20401;-41
2023/12/02 12:50:31;;;;;;;9.45;0.77;;;;;;;;;;5089788;28;20903;-41
2023/12/02 12:53:03;;;;;;;9.93;0.80;;;;;;;;;;5089241;28;20468;-41
2023/12/02 12:55:32;;;;;;;9.13;0.80;;;;;;;;;;5089395;28;20394;-41
2023/12/02 12:57:59;;;;;;;17.58;1.00;;;;;;;;;;5086716;28;20402;-41
2023/12/02 13:00:29;;;;;;;12.43;1.13;;;;;;;;;;5090103;28;20397;-41
2023/12/02 13:03:02;;;;;;;12.88;1.23;;;;;;;;;;5090072;28;20386;-41
2023/12/02 13:05:35;;;;;;;12.68;1.08;;;;;;;;;;5089640;28;20421;-41
2023/12/02 13:08:10;;;;;;;11.75;1.10;;;;;;;;;;5090280;28;20381;-41
2023/12/02 13:10:37;;;;;;;13.57;1.13;;;;;;;;;;5090355;28;20384;-41
2023/12/02 13:13:07;;;;;;;16.48;1.50;;;;;;;;;;5089853;28;20489;-41
2023/12/02 13:15:35;;;;;;;12.50;1.47;;;;;;;;;;5090008;28;20390;-41
2023/12/02 13:18:02;;;;;;;10.82;1.40;;;;;;;;;;5090040;28;20423;-43
2023/12/02 13:20:32;;;;;;;16.50;1.50;;;;;;;;;;5090283;28;20370;-43
2023/12/02 13:23:05;;;;;;;15.40;1.50;;;;;;;;;;5090216;28;20397;-43
2023/12/02 13:25:41;;;;;;;11.70;1.10;;;;;;;;;;5088408;28;20417;-43
2023/12/02 13:28:18;;;;;;;11.95;1.38;;;;;;;;;;5074545;28;20774;-43
2023/12/02 13:30:45;;;;;;;14.40;1.70;;;;;;;;;;5069943;28;20391;-43
2023/12/02 13:33:17;;;;;;;17.50;2.03;;;;;;;;;;5070033;28;20433;-42
2023/12/02 13:35:47;;;;;;;19.20;2.20;;;;;;;;;;5069910;28;20395;-43
2023/12/02 13:38:34;;;;;;;22.23;2.50;;;;;;;;;;5069950;28;20426;-42
2023/12/02 13:41:14;;;;;;;45.23;4.30;;;;;;;;;;5069929;28;20387;-42
2023/12/02 13:43:48;;;;;;;80.00;10.80;;;;;;;;;;5088982;28;20935;-42
2023/12/02 13:46:17;;;;;;;92.00;10.68;;;;;;;;;;5079603;28;20424;-44
2023/12/02 13:48:53;;;;;;;83.55;10.93;;;;;;;;;;5093877;28;20999;-42
2023/12/02 13:51:34;;;;;;;88.70;10.80;;;;;;;;;;5093237;28;20408;-42
2023/12/02 13:54:03;;;;;;;79.85;11.07;;;;;;;;;;5093216;28;20486;-42
2023/12/02 13:56:35;;;;;;;90.60;12.88;;;;;;;;;;5093526;28;20440;-42
2023/12/02 13:59:05;;;;;;;80.30;10.77;;;;;;;;;;5091608;28;20394;-42
2023/12/02 14:01:35;;;;;;;83.82;11.90;;;;;;;;;;5093030;28;20414;-42
2023/12/02 14:04:05;;;;;;;85.32;12.18;;;;;;;;;;5093100;28;20413;-42
2023/12/02 14:06:42;;;;;;;80.57;11.88;;;;;;;;;;5092802;28;20422;-42
2023/12/02 14:09:09;;;;;;;70.30;10.15;;;;;;;;;;5091344;28;20393;-41
2023/12/02 14:11:54;;;;;;;67.45;9.82;;;;;;;;;;5092942;28;20473;-42
2023/12/02 14:14:41;;;;;;;62.17;8.50;;;;;;;;;;5092898;28;20374;-42
2023/12/02 14:17:23;;;;;;;56.90;8.50;;;;;;;;;;5092337;28;21195;-42
2023/12/02 14:20:03;;;;;;;53.47;7.90;;;;;;;;;;5092708;28;20926;-42
2023/12/02 14:22:36;;;;;;;48.35;7.10;;;;;;;;;;5092839;28;20406;-42
2023/12/02 14:25:07;;;;;;;47.95;7.40;;;;;;;;;;5092781;28;20429;-41
2023/12/02 14:27:57;;;;;;;40.72;6.70;;;;;;;;;;5093030;28;20374;-42
2023/12/02 14:30:33;;;;;;;45.25;5.95;;;;;;;;;;5082791;28;20398;-41
2023/12/02 14:33:35;;;;;;;39.13;6.18;;;;;;;;;;5092718;28;20480;-42
2023/12/02 14:36:20;;;;;;;38.13;5.97;;;;;;;;;;5049983;28;20876;-42
2023/12/02 14:38:47;;;;;;;38.05;5.50;;;;;;;;;;5092905;28;20385;-41
2023/12/02 14:41:20;;;;;;;37.30;5.55;;;;;;;;;;5092324;28;20447;-41
2023/12/02 14:43:47;;;;;;;37.83;6.00;;;;;;;;;;5089894;28;20390;-41
2023/12/02 14:46:18;;;;;;;32.83;5.75;;;;;;;;;;5092059;28;21013;-42
2023/12/02 14:48:45;;;;;;;40.30;5.22;;;;;;;;;;5089668;28;20398;-42
2023/12/02 14:51:12;;;;;;;40.83;5.22;;;;;;;;;;5092026;28;20390;-42
2023/12/02 14:53:41;;;;;;;34.97;5.03;;;;;;;;;;5091879;28;20408;-42